메인 페이지
METAR-TAF:

METAR-TAF

공항 :

할링전, 텍사스, 미국

위도: 26-13-47N, 경도: 097-39-19W, 고도: 10m

현재 날씨관측

예보는 1 시간 3분 전, 08:52시(UTC)에 발표되었습니다.
남동7kt
온도 26°C
습도 100%
기압 1012 hPa
시정: 14.5km
맑음

METAR: KHRL 300852Z AUTO 14007KT 9SM CLR 26/26 A2989 RMK AO2 SLP121 T02610256 56016

시각: 04:55 (09:55 UTC)

예보

예보는 4 시간 19분 전, 05:36시(UTC)에 발표되었습니다.
예보 대상 시간: 30일 06시부터 31일 06시까지 (UTC)
남동9kt
시정: 10km
고도 1500ft 상공 구름 보통
30일 1000시부터 (UTC)
남동9kt
시정: 10km
고도 1900ft 상공 구름 많음
30일 1500시부터 (UTC)
남남동17kt, 순간 최대 풍속 25kt
시정: 10km
고도 4000ft 상공 구름 보통
고도 25000ft 상공 구름 보통
31일 0300시부터 (UTC)
남동15kt
시정: 10km
고도 25000ft 상공 구름 조금

TAF: KHRL 300536Z 3006/3106 13009KT P6SM SCT015 FM301000 14009KT P6SM BKN019 FM301500 15017G25KT P6SM SCT040 SCT250 FM310300 14015KT P6SM FEW250

4,000개 이상의 공항 관측 자료 및 예보 (METAR 및 TAF 보고).

지도상에서 검색 가능한 기상관측소가 노란 점과 빨간 점으로 표시되어 있습니다.

기상관측소 명을 보려면 표시 위로 마우스를 이동하세요.

날씨 관측과 예보를 보려면 클릭하세요.

지도 변경 : 확대하려면 엑스 표시가 있는 녹색 버튼, 축소하려면 빼기 표시가 있는 녹색 버튼, 다음 페이지의 지도를 보려면 녹색 화살표를 클릭하세요.


METAR-TAF: